createdAt,value
2023-08-01T00:00:36.904Z,75.41
2023-08-01T00:01:36.985Z,68.48
2023-08-01T00:02:36.891Z,71.87
2023-08-01T00:03:36.854Z,72.03
2023-08-01T00:04:36.827Z,75.89
2023-08-01T00:05:36.843Z,73.32
2023-08-01T00:06:36.813Z,72.99
2023-08-01T00:07:38.120Z,69.29
2023-08-01T00:08:36.837Z,66.71
2023-08-01T00:09:36.772Z,72.51
2023-08-01T00:10:36.790Z,69.61
2023-08-01T00:11:36.791Z,73.80
2023-08-01T00:12:36.766Z,74.12
2023-08-01T00:13:36.840Z,68.48
2023-08-01T00:14:36.817Z,71.22
2023-08-01T00:15:36.766Z,74.60
2023-08-01T00:16:36.800Z,71.06
2023-08-01T00:17:36.753Z,69.29
2023-08-01T00:18:36.748Z,75.25
2023-08-01T00:19:36.762Z,70.42
2023-08-01T00:20:36.683Z,73.48
2023-08-01T00:21:36.712Z,72.19
2023-08-01T00:22:36.674Z,73.32
2023-08-01T00:23:36.682Z,70.09
2023-08-01T00:24:36.672Z,72.03
2023-08-01T00:25:36.742Z,75.25
2023-08-01T00:26:36.637Z,73.48
2023-08-01T00:27:40.040Z,71.54
2023-08-01T00:28:36.629Z,76.38
2023-08-01T00:29:36.647Z,72.03
2023-08-01T00:30:36.622Z,78.31
2023-08-01T00:31:36.721Z,75.25
2023-08-01T00:32:36.646Z,68.64
2023-08-01T00:33:36.577Z,71.22
2023-08-01T00:34:36.568Z,72.19
2023-08-01T00:35:37.352Z,73.15
2023-08-01T00:36:36.571Z,66.06
2023-08-01T00:37:36.627Z,71.22
2023-08-01T00:38:36.532Z,76.22
2023-08-01T00:39:36.523Z,75.25
2023-08-01T00:40:36.536Z,71.54
2023-08-01T00:41:36.525Z,72.35
2023-08-01T00:42:36.507Z,78.31
2023-08-01T00:43:36.551Z,73.32
2023-08-01T00:44:36.497Z,72.51
2023-08-01T00:45:36.521Z,72.19
2023-08-01T00:46:36.477Z,70.42
2023-08-01T00:47:36.497Z,79.44
2023-08-01T00:48:36.470Z,71.06
2023-08-01T00:49:36.486Z,77.99
2023-08-01T00:50:36.415Z,73.80
2023-08-01T00:51:36.424Z,69.77
2023-08-01T00:52:36.417Z,72.03
2023-08-01T00:53:36.407Z,78.96
2023-08-01T00:54:36.461Z,70.58
2023-08-01T00:55:36.403Z,72.35
2023-08-01T00:56:36.372Z,70.42
2023-08-01T00:57:36.376Z,68.16
2023-08-01T00:58:36.361Z,72.83
2023-08-01T00:59:36.443Z,73.96
2023-08-01T01:00:36.406Z,77.18
2023-08-01T01:01:36.383Z,75.73
2023-08-01T01:02:36.456Z,69.93
2023-08-01T01:03:36.323Z,73.64
2023-08-01T01:04:36.351Z,72.51
2023-08-01T01:05:36.301Z,66.87
2023-08-01T01:06:36.327Z,72.35
2023-08-01T01:07:36.288Z,70.58
2023-08-01T01:08:36.266Z,71.87
2023-08-01T01:09:36.283Z,77.83
2023-08-01T01:10:36.273Z,75.73
2023-08-01T01:11:36.253Z,69.45
2023-08-01T01:12:36.331Z,74.44
2023-08-01T01:13:36.307Z,75.41
2023-08-01T01:14:36.223Z,74.44
2023-08-01T01:15:36.218Z,74.12
2023-08-01T01:16:36.218Z,71.87
2023-08-01T01:17:36.206Z,74.28
2023-08-01T01:18:36.235Z,74.93
2023-08-01T01:19:36.178Z,76.05
2023-08-01T01:20:36.178Z,72.35
2023-08-01T01:21:36.161Z,71.38
2023-08-01T01:22:36.175Z,68.16
2023-08-01T01:23:36.135Z,74.44
2023-08-01T01:24:36.160Z,70.09
2023-08-01T01:25:36.150Z,72.99
2023-08-01T01:26:36.132Z,72.19
2023-08-01T01:27:36.123Z,71.06
2023-08-01T01:28:36.151Z,71.06
2023-08-01T01:29:36.101Z,75.25
2023-08-01T01:30:36.143Z,71.54
2023-08-01T01:31:36.079Z,72.83
2023-08-01T01:32:36.080Z,72.83
2023-08-01T01:33:36.104Z,75.73
2023-08-01T01:34:36.034Z,69.29
2023-08-01T01:35:36.037Z,71.38
2023-08-01T01:36:36.045Z,72.99
2023-08-01T01:37:36.038Z,72.35
2023-08-01T01:38:35.996Z,69.13
2023-08-01T01:39:36.078Z,73.64
2023-08-01T01:40:35.991Z,73.32
2023-08-01T01:41:35.987Z,72.51
2023-08-01T01:42:35.970Z,76.22
2023-08-01T01:43:35.974Z,69.45
2023-08-01T01:44:35.990Z,71.54
2023-08-01T01:45:36.026Z,73.48
2023-08-01T01:46:36.024Z,76.86
2023-08-01T01:47:35.984Z,76.86
2023-08-01T01:48:35.913Z,74.60
2023-08-01T01:49:35.916Z,75.57
2023-08-01T01:50:35.910Z,71.54
2023-08-01T01:51:35.950Z,77.83
2023-08-01T01:52:35.894Z,68.48
2023-08-01T01:53:35.890Z,71.38
2023-08-01T01:54:35.885Z,72.19
2023-08-01T01:55:35.874Z,72.51
2023-08-01T01:56:35.899Z,69.77
2023-08-01T01:57:35.994Z,75.41
2023-08-01T01:58:35.836Z,71.38
2023-08-01T01:59:35.831Z,76.86
2023-08-01T02:00:35.838Z,73.48
2023-08-01T02:01:35.815Z,70.09
2023-08-01T02:02:35.796Z,74.93
2023-08-01T02:03:35.819Z,75.09
2023-08-01T02:04:35.869Z,76.54
2023-08-01T02:05:35.830Z,74.93
2023-08-01T02:06:35.759Z,78.31
2023-08-01T02:07:35.777Z,79.12
2023-08-01T02:08:35.748Z,72.03
2023-08-01T02:09:35.752Z,73.15
2023-08-01T02:10:35.759Z,73.48
2023-08-01T02:11:35.788Z,71.38
2023-08-01T02:12:35.727Z,72.19
2023-08-01T02:13:35.744Z,75.25
2023-08-01T02:14:35.718Z,78.31
2023-08-01T02:15:35.714Z,73.80
2023-08-01T02:16:35.852Z,75.41
2023-08-01T02:17:35.765Z,73.80
2023-08-01T02:18:35.668Z,75.73
2023-08-01T02:19:35.666Z,74.12
2023-08-01T02:20:35.653Z,74.44
2023-08-01T02:21:35.644Z,75.89
2023-08-01T02:22:35.637Z,71.22
2023-08-01T02:23:35.701Z,73.80
2023-08-01T02:24:35.625Z,79.92
2023-08-01T02:25:35.624Z,75.25
2023-08-01T02:26:35.599Z,67.35
2023-08-01T02:27:35.602Z,75.89
2023-08-01T02:28:35.671Z,75.57
2023-08-01T02:29:35.621Z,72.03
2023-08-01T02:30:35.578Z,73.32
2023-08-01T02:31:35.607Z,75.73
2023-08-01T02:32:35.658Z,72.67
2023-08-01T02:33:35.658Z,70.58
2023-08-01T02:34:35.530Z,78.96
2023-08-01T02:35:35.570Z,74.44
2023-08-01T02:36:35.531Z,73.80
2023-08-01T02:37:35.520Z,74.93
2023-08-01T02:38:35.539Z,75.57
2023-08-01T02:39:35.497Z,76.22
2023-08-01T02:40:35.483Z,76.54
2023-08-01T02:41:35.504Z,73.64
2023-08-01T02:42:35.474Z,74.77
2023-08-01T02:43:35.471Z,79.92
2023-08-01T02:44:35.508Z,78.15
2023-08-01T02:45:35.465Z,75.89
2023-08-01T02:46:35.444Z,77.34
2023-08-01T02:47:35.494Z,71.87
2023-08-01T02:48:35.420Z,73.80
2023-08-01T02:49:35.444Z,78.31
2023-08-01T02:50:35.910Z,76.38
2023-08-01T02:51:35.410Z,71.87
2023-08-01T02:52:42.971Z,76.70
2023-08-01T02:53:35.392Z,76.54
2023-08-01T02:54:35.396Z,73.96
2023-08-01T02:55:35.366Z,76.38
2023-08-01T02:56:35.392Z,72.03
2023-08-01T02:57:35.359Z,76.86
2023-08-01T02:58:35.416Z,74.12
2023-08-01T02:59:35.340Z,76.22
2023-08-01T03:00:35.329Z,74.77
2023-08-01T03:01:35.374Z,70.58
2023-08-01T03:02:35.341Z,74.77
2023-08-01T03:03:35.379Z,73.64
2023-08-01T03:04:45.889Z,74.93
2023-08-01T03:05:36.279Z,73.80
2023-08-01T03:06:35.268Z,74.28
2023-08-01T03:07:35.265Z,76.86
2023-08-01T03:08:35.312Z,76.54
2023-08-01T03:09:35.248Z,73.64
2023-08-01T03:10:37.164Z,74.93
2023-08-01T03:11:35.229Z,75.25
2023-08-01T03:12:35.224Z,75.57
2023-08-01T03:13:35.235Z,77.34
2023-08-01T03:14:35.220Z,72.99
2023-08-01T03:15:35.195Z,75.25
2023-08-01T03:16:35.183Z,75.41
2023-08-01T03:17:35.218Z,75.89
2023-08-01T03:18:35.152Z,73.80
2023-08-01T03:19:35.540Z,75.41
2023-08-01T03:20:35.183Z,72.51
2023-08-01T03:21:35.169Z,78.79
2023-08-01T03:22:35.128Z,76.38
2023-08-01T03:23:35.126Z,73.32
2023-08-01T03:24:35.111Z,72.67
2023-08-01T03:25:35.147Z,73.96
2023-08-01T03:26:35.117Z,71.54
2023-08-01T03:27:35.118Z,73.15
2023-08-01T03:28:35.230Z,75.57
2023-08-01T03:29:35.105Z,77.50
2023-08-01T03:30:35.119Z,75.73
2023-08-01T03:31:35.105Z,74.12
2023-08-01T03:32:35.045Z,73.80
2023-08-01T03:33:35.037Z,73.48
2023-08-01T03:34:35.080Z,73.96
2023-08-01T03:35:35.036Z,74.44
2023-08-01T03:36:35.035Z,72.51
2023-08-01T03:37:35.108Z,73.15
2023-08-01T03:38:34.993Z,72.67
2023-08-01T03:39:34.990Z,75.57
2023-08-01T03:40:34.966Z,72.83
2023-08-01T03:41:35.047Z,72.51
2023-08-01T03:42:34.956Z,70.90
2023-08-01T03:43:34.990Z,76.05
2023-08-01T03:44:34.960Z,76.22
2023-08-01T03:45:34.993Z,71.87
2023-08-01T03:46:34.938Z,74.77
2023-08-01T03:47:34.977Z,76.22
2023-08-01T03:48:34.899Z,74.28
2023-08-01T03:49:34.970Z,73.32
2023-08-01T03:50:34.879Z,74.44
2023-08-01T03:51:34.982Z,81.86
2023-08-01T03:52:34.883Z,73.32
2023-08-01T03:53:34.880Z,75.09
2023-08-01T03:54:34.847Z,75.73
2023-08-01T03:55:34.884Z,76.54
2023-08-01T03:56:34.893Z,74.93
2023-08-01T03:57:34.870Z,76.05
2023-08-01T03:58:34.814Z,75.25
2023-08-01T03:59:34.855Z,76.05
2023-08-01T04:00:34.807Z,74.60
2023-08-01T04:01:34.874Z,76.05
2023-08-01T04:02:34.813Z,76.38
2023-08-01T04:03:34.839Z,80.41
2023-08-01T04:04:34.762Z,76.22
2023-08-01T04:05:34.759Z,78.15
2023-08-01T04:06:34.764Z,78.15
2023-08-01T04:07:34.819Z,71.54
2023-08-01T04:08:34.777Z,72.99
2023-08-01T04:09:34.793Z,74.77
2023-08-01T04:10:34.768Z,74.28
2023-08-01T04:11:34.737Z,77.34
2023-08-01T04:12:34.709Z,75.09
2023-08-01T04:13:34.783Z,74.60
2023-08-01T04:14:34.688Z,74.77
2023-08-01T04:15:34.730Z,78.15
2023-08-01T04:16:34.680Z,76.38
2023-08-01T04:17:34.771Z,75.89
2023-08-01T04:18:34.726Z,75.41
2023-08-01T04:19:34.713Z,76.22
2023-08-01T04:20:34.633Z,76.70
2023-08-01T04:21:34.625Z,76.05
2023-08-01T04:22:34.673Z,75.57
2023-08-01T04:23:34.605Z,77.02
2023-08-01T04:24:34.609Z,74.93
2023-08-01T04:25:34.691Z,75.89
2023-08-01T04:26:34.579Z,76.22
2023-08-01T04:27:34.594Z,73.64
2023-08-01T04:28:34.635Z,77.99
2023-08-01T04:29:34.561Z,71.38
2023-08-01T04:30:34.614Z,74.77
2023-08-01T04:31:34.600Z,75.73
2023-08-01T04:32:34.529Z,74.93
2023-08-01T04:33:34.518Z,78.96
2023-08-01T04:34:34.527Z,76.86
2023-08-01T04:35:34.519Z,75.25
2023-08-01T04:36:34.568Z,78.47
2023-08-01T04:37:34.485Z,78.15
2023-08-01T04:38:34.508Z,75.09
2023-08-01T04:39:34.543Z,79.60
2023-08-01T04:40:34.475Z,76.86
2023-08-01T04:41:34.449Z,76.54
2023-08-01T04:42:34.487Z,73.48
2023-08-01T04:43:34.426Z,75.89
2023-08-01T04:44:34.434Z,79.76
2023-08-01T04:45:34.451Z,73.64
2023-08-01T04:46:34.490Z,76.86
2023-08-01T04:47:34.452Z,78.79
2023-08-01T04:48:34.415Z,76.70
2023-08-01T04:49:34.412Z,75.89
2023-08-01T04:50:34.375Z,76.54
2023-08-01T04:51:34.359Z,74.12
2023-08-01T04:52:34.392Z,75.09
2023-08-01T04:53:34.358Z,74.28
2023-08-01T04:54:34.355Z,75.25
2023-08-01T04:55:34.399Z,73.48
2023-08-01T04:56:34.332Z,77.02
2023-08-01T04:57:34.337Z,74.44
2023-08-01T04:58:34.361Z,76.86
2023-08-01T04:59:34.297Z,74.28
2023-08-01T05:00:34.321Z,75.25
2023-08-01T05:01:34.289Z,68.96
2023-08-01T05:02:34.286Z,79.76
2023-08-01T05:03:34.386Z,75.89
2023-08-01T05:04:34.256Z,76.22
2023-08-01T05:05:34.239Z,75.09
2023-08-01T05:06:34.237Z,72.67
2023-08-01T05:07:34.284Z,72.03
2023-08-01T05:08:34.227Z,75.25
2023-08-01T05:09:34.202Z,72.83
2023-08-01T05:10:34.227Z,72.99
2023-08-01T05:11:34.194Z,72.51
2023-08-01T05:12:34.206Z,72.83
2023-08-01T05:13:34.234Z,71.87
2023-08-01T05:14:34.164Z,75.25
2023-08-01T05:15:34.158Z,75.25
2023-08-01T05:16:34.194Z,75.25
2023-08-01T05:17:34.181Z,77.02
2023-08-01T05:18:34.144Z,72.99
2023-08-01T05:19:34.185Z,73.80
2023-08-01T05:20:34.177Z,73.48
2023-08-01T05:21:34.153Z,76.22
2023-08-01T05:22:34.103Z,75.25
2023-08-01T05:23:34.107Z,73.80
2023-08-01T05:24:34.093Z,73.80
2023-08-01T05:25:34.095Z,71.06
2023-08-01T05:26:34.091Z,72.67
2023-08-01T05:27:34.091Z,71.06
2023-08-01T05:28:34.089Z,74.60
2023-08-01T05:29:34.026Z,73.15
2023-08-01T05:30:34.071Z,74.93
2023-08-01T05:31:34.065Z,74.44
2023-08-01T05:32:34.072Z,71.87
2023-08-01T05:33:34.015Z,73.48
2023-08-01T05:34:34.013Z,71.87
2023-08-01T05:35:34.046Z,72.51
2023-08-01T05:36:33.977Z,74.60
2023-08-01T05:37:33.961Z,72.51
2023-08-01T05:38:33.973Z,71.22
2023-08-01T05:39:34.013Z,74.60
2023-08-01T05:40:33.987Z,76.22
2023-08-01T05:41:33.968Z,76.70
2023-08-01T05:42:33.947Z,71.38
2023-08-01T05:43:33.921Z,75.89
2023-08-01T05:44:34.138Z,76.05
2023-08-01T05:45:34.875Z,74.28
2023-08-01T05:46:33.987Z,74.60
2023-08-01T05:47:34.137Z,72.83
2023-08-01T05:48:33.881Z,76.22
2023-08-01T05:49:33.973Z,75.89
2023-08-01T05:50:34.395Z,76.05
2023-08-01T05:51:34.049Z,74.12
2023-08-01T05:52:33.849Z,77.99
2023-08-01T05:53:33.820Z,74.77
2023-08-01T05:54:33.821Z,75.09
2023-08-01T05:55:33.816Z,74.28
2023-08-01T05:56:34.052Z,73.64
2023-08-01T05:57:33.818Z,77.34
2023-08-01T05:58:33.778Z,73.15
2023-08-01T05:59:33.784Z,73.32
2023-08-01T06:00:33.841Z,74.44
2023-08-01T06:01:33.902Z,73.80
2023-08-01T06:02:33.781Z,73.32
2023-08-01T06:03:33.874Z,74.93
2023-08-01T06:04:33.757Z,74.28
2023-08-01T06:05:33.732Z,75.57
2023-08-01T06:06:33.756Z,74.28
2023-08-01T06:07:33.699Z,73.96
2023-08-01T06:08:34.161Z,73.15
2023-08-01T06:09:34.040Z,72.83
2023-08-01T06:10:34.403Z,73.32
2023-08-01T06:11:33.666Z,73.32
2023-08-01T06:12:33.670Z,72.35
2023-08-01T06:13:33.638Z,73.80
2023-08-01T06:14:33.648Z,71.38
2023-08-01T06:15:34.476Z,71.70
2023-08-01T06:16:33.722Z,74.77
2023-08-01T06:17:33.696Z,72.19
2023-08-01T06:18:33.618Z,67.51
2023-08-01T06:19:33.602Z,71.70
2023-08-01T06:20:33.622Z,68.32
2023-08-01T06:21:33.594Z,69.61
2023-08-01T06:22:33.694Z,70.90
2023-08-01T06:23:33.609Z,72.19
2023-08-01T06:24:33.564Z,71.38
2023-08-01T06:25:33.574Z,70.90
2023-08-01T06:26:33.546Z,72.35
2023-08-01T06:27:33.521Z,72.35
2023-08-01T06:28:33.581Z,74.44
2023-08-01T06:29:33.499Z,72.03
2023-08-01T06:30:34.091Z,70.42
2023-08-01T06:31:33.550Z,72.19
2023-08-01T06:32:33.564Z,72.67
2023-08-01T06:33:33.471Z,71.54
2023-08-01T06:34:33.505Z,72.03
2023-08-01T06:35:35.392Z,70.25
2023-08-01T06:36:33.831Z,71.22
2023-08-01T06:37:33.648Z,72.19
2023-08-01T06:38:33.478Z,73.64
2023-08-01T06:39:33.537Z,71.54
2023-08-01T06:40:33.850Z,70.90
2023-08-01T06:41:33.419Z,69.77
2023-08-01T06:42:33.418Z,67.84
2023-08-01T06:43:33.401Z,71.06
2023-08-01T06:44:33.389Z,68.16
2023-08-01T06:45:33.487Z,72.03
2023-08-01T06:46:33.479Z,72.51
2023-08-01T06:47:33.450Z,72.35
2023-08-01T06:48:33.918Z,70.90
2023-08-01T06:49:33.508Z,72.03
2023-08-01T06:50:33.406Z,71.22
2023-08-01T06:51:33.348Z,71.22
2023-08-01T06:52:33.668Z,69.13
2023-08-01T06:53:33.307Z,71.87
2023-08-01T06:54:33.501Z,70.74
2023-08-01T06:55:33.297Z,70.25
2023-08-01T06:56:33.316Z,71.54
2023-08-01T06:57:33.263Z,74.28
2023-08-01T06:58:33.519Z,73.64
2023-08-01T06:59:33.324Z,70.09
2023-08-01T07:00:33.263Z,75.25
2023-08-01T07:01:33.254Z,73.48
2023-08-01T07:02:33.243Z,71.54
2023-08-01T07:03:33.287Z,74.77
2023-08-01T07:04:33.224Z,75.09
2023-08-01T07:05:33.906Z,74.93
2023-08-01T07:06:33.217Z,70.25
2023-08-01T07:07:33.197Z,73.15
2023-08-01T07:08:33.592Z,71.38
2023-08-01T07:09:33.454Z,69.77
2023-08-01T07:10:33.205Z,70.09
2023-08-01T07:11:33.175Z,72.19
2023-08-01T07:12:33.177Z,77.18
2023-08-01T07:13:33.216Z,73.96
2023-08-01T07:14:33.155Z,71.54
2023-08-01T07:15:33.123Z,74.12
2023-08-01T07:16:33.119Z,75.09
2023-08-01T07:17:33.674Z,72.19
2023-08-01T07:18:33.160Z,70.42
2023-08-01T07:19:33.098Z,72.99
2023-08-01T07:20:33.083Z,73.15
2023-08-01T07:21:33.069Z,69.61
2023-08-01T07:22:33.080Z,72.99
2023-08-01T07:23:33.058Z,72.83
2023-08-01T07:24:33.077Z,71.22
2023-08-01T07:25:33.030Z,72.35
2023-08-01T07:26:33.032Z,74.12
2023-08-01T07:27:33.034Z,71.87
2023-08-01T07:28:33.029Z,72.03
2023-08-01T07:29:33.044Z,69.29
2023-08-01T07:30:33.028Z,73.96
2023-08-01T07:31:32.986Z,69.77
2023-08-01T07:32:33.028Z,69.93
2023-08-01T07:33:32.960Z,71.54
2023-08-01T07:34:32.968Z,70.58
2023-08-01T07:35:32.997Z,69.45
2023-08-01T07:36:32.966Z,72.51
2023-08-01T07:37:32.966Z,72.51
2023-08-01T07:38:33.059Z,71.22
2023-08-01T07:39:32.897Z,69.93
2023-08-01T07:40:32.906Z,71.87
2023-08-01T07:41:32.925Z,70.58
2023-08-01T07:42:32.890Z,71.06
2023-08-01T07:43:32.873Z,68.96
2023-08-01T07:44:32.893Z,73.48
2023-08-01T07:45:32.864Z,68.48
2023-08-01T07:46:32.853Z,71.38
2023-08-01T07:47:32.915Z,71.70
2023-08-01T07:48:32.835Z,70.09
2023-08-01T07:49:32.825Z,70.58
2023-08-01T07:50:32.810Z,67.84
2023-08-01T07:51:32.789Z,69.61
2023-08-01T07:52:32.841Z,71.70
2023-08-01T07:53:32.783Z,72.19
2023-08-01T07:54:32.846Z,71.22
2023-08-01T07:55:32.781Z,70.25
2023-08-01T07:56:32.844Z,72.03
2023-08-01T07:57:32.749Z,69.77
2023-08-01T07:58:32.804Z,70.74
2023-08-01T07:59:32.753Z,71.22
2023-08-01T08:00:32.780Z,68.00
2023-08-01T08:01:32.787Z,70.42
2023-08-01T08:02:32.752Z,67.84
2023-08-01T08:03:32.734Z,69.45
2023-08-01T08:04:32.764Z,68.48
2023-08-01T08:05:32.721Z,72.19
2023-08-01T08:06:32.682Z,72.03
2023-08-01T08:07:32.690Z,71.87
2023-08-01T08:08:32.743Z,71.06
2023-08-01T08:09:32.734Z,72.83
2023-08-01T08:10:32.770Z,73.15
2023-08-01T08:11:32.637Z,72.03
2023-08-01T08:12:32.641Z,67.84
2023-08-01T08:13:32.628Z,72.35
2023-08-01T08:14:32.618Z,71.22
2023-08-01T08:15:32.690Z,71.38
2023-08-01T08:16:32.703Z,76.38
2023-08-01T08:17:32.664Z,73.80
2023-08-01T08:18:32.666Z,71.87
2023-08-01T08:19:32.602Z,72.19
2023-08-01T08:20:32.849Z,72.67
2023-08-01T08:21:33.066Z,67.19
2023-08-01T08:22:32.565Z,72.51
2023-08-01T08:23:32.548Z,70.42
2023-08-01T08:24:32.541Z,70.74
2023-08-01T08:25:32.577Z,64.45
2023-08-01T08:26:32.776Z,71.38
2023-08-01T08:27:32.591Z,71.22
2023-08-01T08:28:32.596Z,72.19
2023-08-01T08:29:32.500Z,72.99
2023-08-01T08:30:32.552Z,69.93
2023-08-01T08:31:32.555Z,71.38
2023-08-01T08:32:32.490Z,70.42
2023-08-01T08:33:32.504Z,70.58
2023-08-01T08:34:32.596Z,69.77
2023-08-01T08:35:32.479Z,72.03
2023-08-01T08:36:32.634Z,71.06
2023-08-01T08:37:32.473Z,72.99
2023-08-01T08:38:32.452Z,69.13
2023-08-01T08:39:32.418Z,69.93
2023-08-01T08:40:32.432Z,69.61
2023-08-01T08:41:32.390Z,72.03
2023-08-01T08:42:32.413Z,69.61
2023-08-01T08:43:32.431Z,68.32
2023-08-01T08:44:32.380Z,72.19
2023-08-01T08:45:32.388Z,72.03
2023-08-01T08:46:32.574Z,71.22
2023-08-01T08:47:32.436Z,72.19
2023-08-01T08:48:33.028Z,70.90
2023-08-01T08:49:32.370Z,74.60
2023-08-01T08:50:32.508Z,69.61
2023-08-01T08:51:32.342Z,68.00
2023-08-01T08:52:32.564Z,68.80
2023-08-01T08:53:32.369Z,68.32
2023-08-01T08:54:32.295Z,68.64
2023-08-01T08:55:32.443Z,72.35
2023-08-01T08:56:32.273Z,70.25
2023-08-01T08:57:32.291Z,72.83
2023-08-01T08:58:32.520Z,69.13
2023-08-01T08:59:32.283Z,69.61
2023-08-01T09:00:32.425Z,70.90
2023-08-01T09:01:32.321Z,67.51
2023-08-01T09:02:32.301Z,68.96
2023-08-01T09:03:32.524Z,71.38
2023-08-01T09:04:32.249Z,67.68
2023-08-01T09:05:33.468Z,70.42
2023-08-01T09:06:32.171Z,69.93
2023-08-01T09:07:32.184Z,69.13
2023-08-01T09:08:33.226Z,68.96
2023-08-01T09:09:32.283Z,70.58
2023-08-01T09:10:34.123Z,69.61
2023-08-01T09:11:32.137Z,68.64
2023-08-01T09:12:32.127Z,65.42
2023-08-01T09:13:32.144Z,72.99
2023-08-01T09:14:32.138Z,68.96
2023-08-01T09:15:32.114Z,69.93
2023-08-01T09:16:32.186Z,66.71
2023-08-01T09:17:32.159Z,70.42
2023-08-01T09:18:32.198Z,69.61
2023-08-01T09:19:32.093Z,71.06
2023-08-01T09:20:32.867Z,67.68
2023-08-01T09:21:32.720Z,68.64
2023-08-01T09:22:33.221Z,70.25
2023-08-01T09:23:32.317Z,68.80
2023-08-01T09:24:32.236Z,70.74
2023-08-01T09:25:32.300Z,68.96
2023-08-01T09:26:32.006Z,68.00
2023-08-01T09:27:33.038Z,67.51
2023-08-01T09:28:32.040Z,67.19
2023-08-01T09:29:32.011Z,65.10
2023-08-01T09:30:32.002Z,70.42
2023-08-01T09:31:32.306Z,63.16
2023-08-01T09:32:32.016Z,69.77
2023-08-01T09:33:32.007Z,68.80
2023-08-01T09:34:31.975Z,69.13
2023-08-01T09:35:31.960Z,69.13
2023-08-01T09:36:31.933Z,67.84
2023-08-01T09:37:31.942Z,69.93
2023-08-01T09:38:31.966Z,69.77
2023-08-01T09:39:31.915Z,67.35
2023-08-01T09:40:31.902Z,68.00
2023-08-01T09:41:31.918Z,66.87
2023-08-01T09:42:31.886Z,65.58
2023-08-01T09:43:31.910Z,67.68
2023-08-01T09:44:31.966Z,69.77
2023-08-01T09:45:31.908Z,67.19
2023-08-01T09:46:31.901Z,66.87
2023-08-01T09:47:31.892Z,67.84
2023-08-01T09:48:32.021Z,67.84
2023-08-01T09:49:31.962Z,66.39
2023-08-01T09:50:31.836Z,69.29
2023-08-01T09:51:31.810Z,70.42
2023-08-01T09:52:31.817Z,68.48
2023-08-01T09:53:31.817Z,68.80
2023-08-01T09:54:31.825Z,70.42
2023-08-01T09:55:31.870Z,67.84
2023-08-01T09:56:31.823Z,69.45
2023-08-01T09:57:31.775Z,69.29
2023-08-01T09:58:31.771Z,70.25
2023-08-01T09:59:31.761Z,71.06
2023-08-01T10:00:31.760Z,71.54
2023-08-01T10:01:31.762Z,66.71
2023-08-01T10:02:31.946Z,73.48
2023-08-01T10:03:31.782Z,72.51
2023-08-01T10:04:31.836Z,69.93
2023-08-01T10:05:31.705Z,69.77
2023-08-01T10:06:31.701Z,67.51
2023-08-01T10:07:31.699Z,69.29
2023-08-01T10:08:31.745Z,69.29
2023-08-01T10:09:31.677Z,70.74
2023-08-01T10:10:31.671Z,69.29
2023-08-01T10:11:31.687Z,70.42
2023-08-01T10:12:31.709Z,65.74
2023-08-01T10:13:31.657Z,66.87
2023-08-01T10:14:31.651Z,63.33
2023-08-01T10:15:31.678Z,67.51
2023-08-01T10:16:31.622Z,68.96
2023-08-01T10:17:31.674Z,67.51
2023-08-01T10:18:31.643Z,68.00
2023-08-01T10:19:31.601Z,68.80
2023-08-01T10:20:31.585Z,68.00
2023-08-01T10:21:31.580Z,70.74
2023-08-01T10:22:31.551Z,68.16
2023-08-01T10:23:31.567Z,69.77
2023-08-01T10:24:31.564Z,68.48
2023-08-01T10:25:31.553Z,69.61
2023-08-01T10:26:31.529Z,68.64
2023-08-01T10:27:31.526Z,69.45
2023-08-01T10:28:31.536Z,69.13
2023-08-01T10:29:31.617Z,70.25
2023-08-01T10:30:31.534Z,66.23
2023-08-01T10:31:31.530Z,65.90
2023-08-01T10:32:31.484Z,67.03
2023-08-01T10:33:31.777Z,70.09
2023-08-01T10:34:31.468Z,71.06
2023-08-01T10:35:31.637Z,70.09
2023-08-01T10:36:31.467Z,67.84
2023-08-01T10:37:31.444Z,70.74
2023-08-01T10:38:31.427Z,68.48
2023-08-01T10:39:31.428Z,68.64
2023-08-01T10:40:31.422Z,66.06
2023-08-01T10:41:31.441Z,69.45
2023-08-01T10:42:31.400Z,69.93
2023-08-01T10:43:31.406Z,66.23
2023-08-01T10:44:31.385Z,69.61
2023-08-01T10:45:31.383Z,67.51
2023-08-01T10:46:31.367Z,68.80
2023-08-01T10:47:31.541Z,70.42
2023-08-01T10:48:31.354Z,67.51
2023-08-01T10:49:31.349Z,68.00
2023-08-01T10:50:31.325Z,66.87
2023-08-01T10:51:31.346Z,68.80
2023-08-01T10:52:31.331Z,71.06
2023-08-01T10:53:31.364Z,70.42
2023-08-01T10:54:31.367Z,69.29
2023-08-01T10:55:31.312Z,68.00
2023-08-01T10:56:31.297Z,65.58
2023-08-01T10:57:31.353Z,68.00
2023-08-01T10:58:31.260Z,67.35
2023-08-01T10:59:31.302Z,65.74
2023-08-01T11:00:31.254Z,67.84
2023-08-01T11:01:31.297Z,67.51
2023-08-01T11:02:31.274Z,67.84
2023-08-01T11:03:31.285Z,66.06
2023-08-01T11:04:31.288Z,67.03
2023-08-01T11:05:31.241Z,65.58
2023-08-01T11:06:31.216Z,69.77
2023-08-01T11:07:31.209Z,68.96
2023-08-01T11:08:31.187Z,66.71
2023-08-01T11:09:31.195Z,68.48
2023-08-01T11:10:31.214Z,69.29
2023-08-01T11:11:31.181Z,69.77
2023-08-01T11:12:31.155Z,65.74
2023-08-01T11:13:31.151Z,68.48
2023-08-01T11:14:31.256Z,69.45
2023-08-01T11:15:31.171Z,70.58
2023-08-01T11:16:31.124Z,69.61
2023-08-01T11:17:31.146Z,69.77
2023-08-01T11:18:31.095Z,68.64
2023-08-01T11:19:31.116Z,67.51
2023-08-01T11:20:31.090Z,70.90
2023-08-01T11:21:31.165Z,69.45
2023-08-01T11:22:31.989Z,66.87
2023-08-01T11:23:31.087Z,66.55
2023-08-01T11:24:31.056Z,68.16
2023-08-01T11:25:31.070Z,69.45
2023-08-01T11:26:31.080Z,69.93
2023-08-01T11:27:31.054Z,68.96
2023-08-01T11:28:31.011Z,65.74
2023-08-01T11:29:31.010Z,70.25
2023-08-01T11:30:30.996Z,70.74
2023-08-01T11:31:31.028Z,70.42
2023-08-01T11:32:31.019Z,68.80
2023-08-01T11:33:30.968Z,71.06
2023-08-01T11:34:31.069Z,68.64
2023-08-01T11:35:30.961Z,67.35
2023-08-01T11:36:30.949Z,68.96
2023-08-01T11:37:30.993Z,68.80
2023-08-01T11:38:31.100Z,64.61
2023-08-01T11:39:30.930Z,72.03
2023-08-01T11:40:30.914Z,68.00
2023-08-01T11:41:30.930Z,66.87
2023-08-01T11:42:30.910Z,70.90
2023-08-01T11:43:30.920Z,72.03
2023-08-01T11:44:30.910Z,67.19
2023-08-01T11:45:30.940Z,69.93
2023-08-01T11:46:30.864Z,68.48
2023-08-01T11:47:30.855Z,70.90
2023-08-01T11:48:30.835Z,68.32
2023-08-01T11:49:30.849Z,68.00
2023-08-01T11:50:30.850Z,71.22
2023-08-01T11:51:30.864Z,68.32
2023-08-01T11:52:30.816Z,68.00
2023-08-01T11:53:30.897Z,70.74
2023-08-01T11:54:30.778Z,71.22
2023-08-01T11:55:30.786Z,68.32
2023-08-01T11:56:30.847Z,69.77
2023-08-01T11:57:30.807Z,64.94
2023-08-01T11:58:30.752Z,69.13
2023-08-01T11:59:30.760Z,66.87
2023-08-01T12:00:30.758Z,67.35
2023-08-01T12:01:30.836Z,70.90
2023-08-01T12:02:30.803Z,67.68
2023-08-01T12:03:30.777Z,65.58
2023-08-01T12:04:30.821Z,68.96
2023-08-01T12:05:30.732Z,68.48
2023-08-01T12:06:30.728Z,68.64
2023-08-01T12:07:30.738Z,67.35
2023-08-01T12:08:30.657Z,70.09
2023-08-01T12:09:30.662Z,69.93
2023-08-01T12:10:30.671Z,68.80
2023-08-01T12:11:30.663Z,70.09
2023-08-01T12:12:30.651Z,64.45
2023-08-01T12:13:30.668Z,69.93
2023-08-01T12:14:30.662Z,68.16
2023-08-01T12:15:30.657Z,68.16
2023-08-01T12:16:30.736Z,68.16
2023-08-01T12:17:30.642Z,69.29
2023-08-01T12:19:30.626Z,67.35
2023-08-01T12:20:30.602Z,70.42
2023-08-01T12:21:30.595Z,70.74
2023-08-01T12:22:30.544Z,68.96
2023-08-01T12:23:30.608Z,69.61
2023-08-01T12:24:30.592Z,69.61
2023-08-01T12:25:30.685Z,66.71
2023-08-01T12:26:30.694Z,68.16
2023-08-01T12:27:30.548Z,66.55
2023-08-01T12:28:30.501Z,68.00
2023-08-01T12:29:31.117Z,64.61
2023-08-01T12:30:30.522Z,67.51
2023-08-01T12:31:30.510Z,66.06
2023-08-01T12:32:30.532Z,64.45
2023-08-01T12:33:30.534Z,68.32
2023-08-01T12:34:30.483Z,68.80
2023-08-01T12:35:30.535Z,66.39
2023-08-01T12:36:30.540Z,64.78
2023-08-01T12:37:30.490Z,65.90
2023-08-01T12:38:30.413Z,66.39
2023-08-01T12:39:30.430Z,65.26
2023-08-01T12:40:30.393Z,65.42
2023-08-01T12:41:30.446Z,64.13
2023-08-01T12:42:30.377Z,65.90
2023-08-01T12:43:30.420Z,63.97
2023-08-01T12:44:30.454Z,68.32
2023-08-01T12:45:30.432Z,68.80
2023-08-01T12:46:30.396Z,67.03
2023-08-01T12:47:30.386Z,68.00
2023-08-01T12:48:30.376Z,65.58
2023-08-01T12:49:30.427Z,65.42
2023-08-01T12:50:30.319Z,65.74
2023-08-01T12:51:30.321Z,70.74
2023-08-01T12:52:30.302Z,66.39
2023-08-01T12:53:30.365Z,69.61